createdAt,value
2023-01-30T00:01:01.753Z,101857.50
2023-01-30T00:03:28.230Z,101849.31
2023-01-30T00:05:54.568Z,101847.22
2023-01-30T00:08:21.544Z,101846.47
2023-01-30T00:10:48.395Z,101854.09
2023-01-30T00:13:15.658Z,101850.94
2023-01-30T00:15:42.716Z,101861.25
2023-01-30T00:18:09.556Z,101853.59
2023-01-30T00:20:36.392Z,101849.38
2023-01-30T00:23:02.931Z,101829.59
2023-01-30T00:25:29.569Z,101828.00
2023-01-30T00:27:56.600Z,101810.31
2023-01-30T00:30:22.984Z,101813.75
2023-01-30T00:32:54.471Z,101809.53
2023-01-30T00:35:20.831Z,101800.56
2023-01-30T00:37:47.158Z,101798.72
2023-01-30T00:40:13.730Z,101790.28
2023-01-30T00:42:58.486Z,101786.59
2023-01-30T00:45:43.249Z,101765.19
2023-01-30T00:48:09.671Z,101769.22
2023-01-30T00:50:44.886Z,101777.66
2023-01-30T00:53:16.068Z,101786.91
2023-01-30T00:55:44.886Z,101789.78
2023-01-30T00:58:12.696Z,101786.63
2023-01-30T01:00:39.262Z,101775.00
2023-01-30T01:03:05.632Z,101775.28
2023-01-30T01:05:32.019Z,101780.81
2023-01-30T01:07:58.363Z,101776.88
2023-01-30T01:10:24.789Z,101767.09
2023-01-30T01:12:53.719Z,101748.59
2023-01-30T01:15:22.038Z,101730.63
2023-01-30T01:17:49.489Z,101739.59
2023-01-30T01:20:17.028Z,101738.03
2023-01-30T01:22:43.446Z,101736.97
2023-01-30T01:25:11.003Z,101734.31
2023-01-30T01:27:38.389Z,101720.34
2023-01-30T01:30:06.126Z,101723.75
2023-01-30T01:32:32.561Z,101723.47
2023-01-30T01:34:58.909Z,101725.59
2023-01-30T01:37:25.286Z,101735.38
2023-01-30T01:40:10.520Z,101713.47
2023-01-30T01:42:38.310Z,101708.19
2023-01-30T01:45:14.157Z,101715.28
2023-01-30T01:47:46.389Z,101716.06
2023-01-30T01:50:18.206Z,101716.06
2023-01-30T01:52:45.917Z,101712.91
2023-01-30T01:55:13.464Z,101721.34
2023-01-30T01:57:46.764Z,101706.03
2023-01-30T02:00:16.933Z,101711.03
2023-01-30T02:03:05.625Z,101707.34
2023-01-30T02:05:38.617Z,101700.47
2023-01-30T02:08:14.258Z,101701.28
2023-01-30T02:10:54.029Z,101697.06
2023-01-30T02:13:20.778Z,101696.78
2023-01-30T02:15:47.103Z,101696.78
2023-01-30T02:18:14.764Z,101706.28
2023-01-30T02:21:00.565Z,101697.31
2023-01-30T02:23:54.538Z,101706.81
2023-01-30T02:26:48.915Z,101705.47
2023-01-30T02:29:44.237Z,101699.66
2023-01-30T02:32:22.739Z,101689.88
2023-01-30T02:35:05.421Z,101699.38
2023-01-30T02:37:54.360Z,101698.31
2023-01-30T02:40:47.578Z,101683.25
2023-01-30T02:43:33.032Z,101693.03
2023-01-30T02:46:15.583Z,101672.69
2023-01-30T02:48:44.292Z,101677.19
2023-01-30T02:51:21.043Z,101675.59
2023-01-30T02:53:49.515Z,101683.53
2023-01-30T02:56:16.390Z,101679.84
2023-01-30T02:58:48.892Z,101671.91
2023-01-30T03:01:32.437Z,101671.66
2023-01-30T03:04:31.731Z,101675.09
2023-01-30T03:07:11.712Z,101671.38
2023-01-30T03:09:55.836Z,101657.38
2023-01-30T03:12:43.691Z,101657.63
2023-01-30T03:15:17.348Z,101659.22
2023-01-30T03:17:46.679Z,101660.03
2023-01-30T03:20:15.391Z,101652.34
2023-01-30T03:22:41.697Z,101647.88
2023-01-30T03:25:08.992Z,101652.88
2023-01-30T03:27:35.899Z,101644.16
2023-01-30T03:30:02.256Z,101642.31
2023-01-30T03:32:28.617Z,101642.81
2023-01-30T03:34:54.928Z,101647.03
2023-01-30T03:37:21.674Z,101640.72
2023-01-30T03:39:48.050Z,101638.06
2023-01-30T03:42:14.373Z,101632.50
2023-01-30T03:44:40.685Z,101644.66
2023-01-30T03:47:07.022Z,101642.53
2023-01-30T03:49:33.330Z,101644.13
2023-01-30T03:51:59.665Z,101631.94
2023-01-30T03:54:26.023Z,101629.06
2023-01-30T03:56:52.333Z,101633.78
2023-01-30T03:59:18.649Z,101630.06
2023-01-30T04:01:45.001Z,101635.91
2023-01-30T04:04:11.369Z,101637.47
2023-01-30T04:06:37.700Z,101629.75
2023-01-30T04:09:04.200Z,101632.38
2023-01-30T04:11:30.530Z,101630.56
2023-01-30T04:13:56.901Z,101635.56
2023-01-30T04:16:27.189Z,101636.84
2023-01-30T04:18:53.864Z,101646.38
2023-01-30T04:21:20.873Z,101639.50
2023-01-30T04:23:47.548Z,101645.81
2023-01-30T04:26:13.985Z,101645.03
2023-01-30T04:28:40.528Z,101647.41
2023-01-30T04:31:07.141Z,101643.69
2023-01-30T04:33:36.853Z,101641.03
2023-01-30T04:36:04.999Z,101645.81
2023-01-30T04:38:32.230Z,101650.31
2023-01-30T04:40:59.384Z,101635.72
2023-01-30T04:43:27.694Z,101637.31
2023-01-30T04:45:54.808Z,101639.16
2023-01-30T04:48:23.014Z,101645.00
2023-01-30T04:50:50.814Z,101647.09
2023-01-30T04:53:18.314Z,101638.38
2023-01-30T04:55:44.640Z,101648.69
2023-01-30T04:58:10.965Z,101647.06
2023-01-30T05:00:37.570Z,101641.03
2023-01-30T05:03:04.045Z,101635.22
2023-01-30T05:05:30.541Z,101649.78
2023-01-30T05:07:56.884Z,101640.50
2023-01-30T05:10:23.379Z,101650.81
2023-01-30T05:12:49.697Z,101658.22
2023-01-30T05:15:16.657Z,101656.88
2023-01-30T05:17:44.700Z,101653.44
2023-01-30T05:20:12.636Z,101669.31
2023-01-30T05:22:39.337Z,101654.53
2023-01-30T05:25:06.480Z,101650.03
2023-01-30T05:27:32.788Z,101648.94
2023-01-30T05:29:59.128Z,101651.59
2023-01-30T05:32:27.170Z,101655.59
2023-01-30T05:34:53.581Z,101674.31
2023-01-30T05:37:19.914Z,101669.31
2023-01-30T05:39:46.269Z,101679.69
2023-01-30T05:42:12.650Z,101674.44
2023-01-30T05:44:39.105Z,101669.44
2023-01-30T05:47:05.464Z,101689.25
2023-01-30T05:49:31.800Z,101683.97
2023-01-30T05:51:58.237Z,101674.50
2023-01-30T05:54:24.625Z,101684.28
2023-01-30T05:56:51.221Z,101688.22
2023-01-30T05:59:18.618Z,101687.22
2023-01-30T06:01:44.939Z,101677.16
2023-01-30T06:04:11.349Z,101676.13
2023-01-30T06:06:37.927Z,101675.09
2023-01-30T06:09:04.631Z,101691.19
2023-01-30T06:11:30.985Z,101690.44
2023-01-30T06:13:57.339Z,101696.28
2023-01-30T06:16:23.938Z,101706.56
2023-01-30T06:18:50.326Z,101706.06
2023-01-30T06:21:17.164Z,101705.28
2023-01-30T06:23:43.650Z,101704.25
2023-01-30T06:26:10.153Z,101713.50
2023-01-30T06:28:37.317Z,101701.59
2023-01-30T06:31:06.398Z,101707.13
2023-01-30T06:33:32.831Z,101705.81
2023-01-30T06:35:59.224Z,101706.63
2023-01-30T06:38:26.249Z,101706.59
2023-01-30T06:40:52.717Z,101717.16
2023-01-30T06:43:19.106Z,101715.84
2023-01-30T06:45:45.439Z,101714.00
2023-01-30T06:48:11.794Z,101711.13
2023-01-30T06:50:38.300Z,101706.88
2023-01-30T06:53:07.042Z,101707.91
2023-01-30T06:55:35.400Z,101715.06
2023-01-30T06:58:12.742Z,101718.22
2023-01-30T07:00:40.581Z,101720.59
2023-01-30T07:03:15.192Z,101718.22
2023-01-30T07:05:42.997Z,101717.44
2023-01-30T07:08:09.910Z,101717.41
2023-01-30T07:10:36.541Z,101744.59
2023-01-30T07:13:03.992Z,101732.44
2023-01-30T07:15:31.277Z,101746.97
2023-01-30T07:17:57.772Z,101757.00
2023-01-30T07:20:24.344Z,101758.56
2023-01-30T07:22:52.265Z,101755.16
2023-01-30T07:25:20.520Z,101765.16
2023-01-30T07:27:54.468Z,101764.91
2023-01-30T07:30:20.950Z,101761.72
2023-01-30T07:32:51.917Z,101765.13
2023-01-30T07:35:19.307Z,101772.50
2023-01-30T07:37:49.552Z,101761.19
2023-01-30T07:40:16.141Z,101766.44
2023-01-30T07:42:42.900Z,101780.16
2023-01-30T07:45:10.015Z,101780.94
2023-01-30T07:47:36.437Z,101764.88
2023-01-30T07:50:03.325Z,101770.69
2023-01-30T07:52:29.740Z,101766.47
2023-01-30T07:54:56.153Z,101769.13
2023-01-30T07:57:22.849Z,101771.00
2023-01-30T07:59:49.221Z,101776.25
2023-01-30T08:02:15.550Z,101760.44
2023-01-30T08:04:42.006Z,101785.53
2023-01-30T08:07:08.369Z,101780.25
2023-01-30T08:09:34.689Z,101779.72
2023-01-30T08:12:01.004Z,101766.53
2023-01-30T08:14:29.450Z,101772.59
2023-01-30T08:16:58.919Z,101774.50
2023-01-30T08:19:26.321Z,101786.09
2023-01-30T08:21:52.817Z,101782.13
2023-01-30T08:24:19.167Z,101790.56
2023-01-30T08:26:48.138Z,101795.78
2023-01-30T08:29:14.729Z,101804.16
2023-01-30T08:31:41.136Z,101800.97
2023-01-30T08:34:08.221Z,101803.34
2023-01-30T08:36:34.581Z,101820.59
2023-01-30T08:39:00.932Z,101817.94
2023-01-30T08:41:28.269Z,101816.38
2023-01-30T08:43:54.611Z,101818.75
2023-01-30T08:46:21.915Z,101824.06
2023-01-30T08:48:50.199Z,101821.44
2023-01-30T08:51:17.182Z,101811.94
2023-01-30T08:53:43.505Z,101812.47
2023-01-30T08:56:09.993Z,101817.22
2023-01-30T08:58:36.721Z,101818.81
2023-01-30T09:01:06.872Z,101829.38
2023-01-30T09:03:33.245Z,101829.38
2023-01-30T09:05:59.710Z,101847.06
2023-01-30T09:08:26.081Z,101830.44
2023-01-30T09:10:52.395Z,101837.28
2023-01-30T09:13:19.077Z,101852.13
2023-01-30T09:15:45.577Z,101852.13
2023-01-30T09:18:12.309Z,101839.69
2023-01-30T09:20:38.859Z,101860.84
2023-01-30T09:23:05.233Z,101862.94
2023-01-30T09:25:31.615Z,101863.19
2023-01-30T09:27:58.219Z,101867.16
2023-01-30T09:30:24.574Z,101861.06
2023-01-30T09:32:50.960Z,101862.13
2023-01-30T09:35:17.638Z,101877.72
2023-01-30T09:37:48.661Z,101864.78
2023-01-30T09:40:18.657Z,101877.47
2023-01-30T09:43:50.257Z,101888.03
2023-01-30T09:46:35.948Z,101889.88
2023-01-30T09:49:08.272Z,101879.03
2023-01-30T09:51:44.121Z,101889.63
2023-01-30T09:54:13.960Z,101890.66
2023-01-30T09:56:40.529Z,101900.72
2023-01-30T09:59:07.261Z,101887.75
2023-01-30T10:01:51.376Z,101895.94
2023-01-30T10:04:42.017Z,101890.94
2023-01-30T10:11:09.519Z,101892.50
2023-01-30T10:13:53.203Z,101907.31
2023-01-30T10:16:34.994Z,101908.91
2023-01-30T10:19:44.861Z,101912.84
2023-01-30T10:22:28.470Z,101925.56
2023-01-30T10:25:13.157Z,101924.75
2023-01-30T10:27:47.568Z,101930.81
2023-01-30T10:30:16.097Z,101916.00
2023-01-30T10:32:50.337Z,101926.06
2023-01-30T10:35:25.516Z,101923.41
2023-01-30T10:38:35.741Z,101921.84
2023-01-30T10:41:17.021Z,101930.03
2023-01-30T10:43:48.158Z,101926.59
2023-01-30T10:46:35.058Z,101930.28
2023-01-30T10:49:31.363Z,101929.78
2023-01-30T10:52:12.385Z,101938.50
2023-01-30T10:55:13.073Z,101943.00
2023-01-30T10:58:09.838Z,101933.22
2023-01-30T11:00:42.713Z,101920.00
2023-01-30T11:03:21.983Z,101933.69
2023-01-30T11:05:50.926Z,101947.69
2023-01-30T11:08:31.131Z,101941.22
2023-01-30T11:10:58.472Z,101939.53
2023-01-30T11:13:30.490Z,101941.25
2023-01-30T11:15:59.810Z,101924.50
2023-01-30T11:19:18.183Z,101936.94
2023-01-30T11:21:19.561Z,101928.66
2023-01-30T11:23:45.941Z,101933.50
2023-01-30T11:26:29.625Z,101926.94
2023-01-30T11:28:58.856Z,101927.72
2023-01-30T11:31:40.403Z,101916.34
2023-01-30T11:34:16.246Z,101925.63
2023-01-30T11:36:42.973Z,101916.34
2023-01-30T11:39:12.221Z,101920.34
2023-01-30T11:42:01.663Z,101911.28
2023-01-30T11:44:29.001Z,101906.97
2023-01-30T11:46:59.130Z,101905.25
2023-01-30T11:49:50.880Z,101915.84
2023-01-30T11:52:24.076Z,101914.66
2023-01-30T11:54:52.248Z,101916.19
2023-01-30T11:57:20.404Z,101917.19
2023-01-30T11:59:54.802Z,101920.38
2023-01-30T12:02:25.319Z,101924.91
2023-01-30T12:04:56.051Z,101935.00
2023-01-30T12:07:31.367Z,101936.06
2023-01-30T12:09:58.788Z,101948.31
2023-01-30T12:12:32.632Z,101941.72
2023-01-30T12:15:23.896Z,101937.03
2023-01-30T12:18:01.193Z,101939.41
2023-01-30T12:21:00.072Z,101950.78
2023-01-30T12:24:04.977Z,101950.31
2023-01-30T12:26:37.291Z,101957.84
2023-01-30T12:29:03.650Z,101949.91
2023-01-30T12:31:39.254Z,101953.09
2023-01-30T12:34:05.659Z,101949.94
2023-01-30T12:36:35.059Z,101963.50
2023-01-30T12:39:23.153Z,101964.59
2023-01-30T12:41:56.494Z,101960.09
2023-01-30T12:44:43.908Z,101971.75
2023-01-30T12:47:38.427Z,101972.25
2023-01-30T12:50:04.733Z,101972.81
2023-01-30T12:52:49.347Z,101971.72
2023-01-30T12:55:25.679Z,101966.94
2023-01-30T12:58:11.543Z,101977.56
2023-01-30T13:00:59.555Z,101985.53
2023-01-30T13:03:47.497Z,101987.13
2023-01-30T13:06:46.853Z,101984.47
2023-01-30T13:09:36.823Z,101993.50
2023-01-30T13:12:14.067Z,102004.66
2023-01-30T13:15:03.609Z,102008.38
2023-01-30T13:17:38.726Z,101997.22
2023-01-30T13:20:23.031Z,102012.06
2023-01-30T13:23:07.969Z,102008.38
2023-01-30T13:25:34.411Z,102008.63
2023-01-30T13:28:09.740Z,102015.28
2023-01-30T13:30:36.175Z,102019.25
2023-01-30T13:33:12.678Z,102019.00
2023-01-30T13:36:14.049Z,102034.91
2023-01-30T13:39:03.209Z,102029.88
2023-01-30T13:41:40.141Z,102057.94
2023-01-30T13:44:28.799Z,102054.22
2023-01-30T13:46:56.269Z,102042.84
2023-01-30T13:49:37.108Z,102055.81
2023-01-30T13:52:15.610Z,102061.34
2023-01-30T13:55:20.516Z,102069.81
2023-01-30T13:58:14.500Z,102067.44
2023-01-30T14:00:53.572Z,102060.56
2023-01-30T14:03:31.302Z,102069.03
2023-01-30T14:05:59.120Z,102074.31
2023-01-30T14:08:27.969Z,102071.94
2023-01-30T14:10:56.137Z,102083.06
2023-01-30T14:13:24.279Z,102089.44
2023-01-30T14:16:00.658Z,102094.72
2023-01-30T14:18:31.179Z,102096.06
2023-01-30T14:21:20.193Z,102102.69
2023-01-30T14:24:04.799Z,102107.47
2023-01-30T14:26:53.027Z,102109.56
2023-01-30T14:29:37.750Z,102119.91
2023-01-30T14:32:13.992Z,102137.66
2023-01-30T14:34:45.346Z,102132.34
2023-01-30T14:37:39.212Z,102140.81
2023-01-30T14:40:30.997Z,102145.03
2023-01-30T14:43:12.681Z,102151.94
2023-01-30T14:45:45.238Z,102157.75
2023-01-30T14:48:40.596Z,102158.56
2023-01-30T14:51:18.577Z,102165.97
2023-01-30T14:53:56.055Z,102165.19
2023-01-30T14:56:34.684Z,102171.00
2023-01-30T14:59:03.859Z,102172.34
2023-01-30T15:02:07.305Z,102176.28
2023-01-30T15:04:40.411Z,102183.16
2023-01-30T15:07:45.657Z,102195.34
2023-01-30T15:10:20.289Z,102188.47
2023-01-30T15:13:02.440Z,102195.88
2023-01-30T15:15:40.788Z,102208.06
2023-01-30T15:18:22.469Z,102209.91
2023-01-30T15:21:15.195Z,102219.69
2023-01-30T15:24:10.052Z,102216.25
2023-01-30T15:26:54.435Z,102219.97
2023-01-30T15:29:51.523Z,102217.31
2023-01-30T15:32:21.024Z,102218.63
2023-01-30T15:34:57.132Z,102222.88
2023-01-30T15:37:38.188Z,102233.19
2023-01-30T15:40:14.418Z,102236.59
2023-01-30T15:43:13.043Z,102244.03
2023-01-30T15:46:00.687Z,102244.56
2023-01-30T15:48:36.009Z,102259.63
2023-01-30T15:51:03.305Z,102263.06
2023-01-30T15:53:34.419Z,102257.25
2023-01-30T15:56:03.029Z,102260.41
2023-01-30T15:58:30.934Z,102256.69
2023-01-30T16:01:00.600Z,102267.03
2023-01-30T16:03:32.885Z,102276.56
2023-01-30T16:05:59.355Z,102279.72
2023-01-30T16:08:28.647Z,102276.25
2023-01-30T16:10:55.896Z,102281.81
2023-01-30T16:13:23.802Z,102285.50
2023-01-30T16:16:02.308Z,102297.38
2023-01-30T16:18:37.928Z,102312.19
2023-01-30T16:21:09.782Z,102310.56
2023-01-30T16:23:43.087Z,102317.41
2023-01-30T16:26:17.864Z,102325.25
2023-01-30T16:28:45.048Z,102332.38
2023-01-30T16:31:11.936Z,102334.75
2023-01-30T16:33:38.677Z,102341.06
2023-01-30T16:36:20.386Z,102348.41
2023-01-30T16:38:51.607Z,102357.38
2023-01-30T16:41:28.099Z,102363.16
2023-01-30T16:44:18.013Z,102371.56
2023-01-30T16:46:52.704Z,102375.50
2023-01-30T16:49:24.328Z,102381.28
2023-01-30T16:52:00.553Z,102384.72
2023-01-30T16:54:30.081Z,102383.34
2023-01-30T16:56:59.692Z,102376.25
2023-01-30T16:59:35.126Z,102393.91
2023-01-30T17:02:04.397Z,102396.78
2023-01-30T17:04:33.734Z,102399.63
2023-01-30T17:07:04.011Z,102403.84
2023-01-30T17:09:42.517Z,102408.28
2023-01-30T17:12:42.396Z,102413.00
2023-01-30T17:15:14.564Z,102420.13
2023-01-30T17:17:41.529Z,102432.00
2023-01-30T17:20:09.132Z,102432.75
2023-01-30T17:22:37.147Z,102438.97
2023-01-30T17:25:07.364Z,102444.75
2023-01-30T17:27:34.140Z,102444.41
2023-01-30T17:30:00.449Z,102444.81
2023-01-30T17:32:26.899Z,102452.44
2023-01-30T17:34:53.490Z,102461.09
2023-01-30T17:37:21.318Z,102460.22
2023-01-30T17:39:48.552Z,102464.72
2023-01-30T17:42:21.831Z,102461.50
2023-01-30T17:44:48.455Z,102470.00
2023-01-30T17:47:14.773Z,102472.63
2023-01-30T17:49:41.134Z,102471.59
2023-01-30T17:52:07.650Z,102477.84
2023-01-30T17:54:34.150Z,102477.19
2023-01-30T17:57:02.940Z,102475.84
2023-01-30T17:59:29.261Z,102482.91
2023-01-30T18:01:55.744Z,102498.19
2023-01-30T18:04:22.246Z,102496.56
2023-01-30T18:06:52.854Z,102483.97
2023-01-30T18:09:24.058Z,102496.44
2023-01-30T18:11:51.053Z,102495.06
2023-01-30T18:14:17.718Z,102493.94
2023-01-30T18:16:44.802Z,102496.91
2023-01-30T18:19:18.295Z,102508.25
2023-01-30T18:21:45.442Z,102505.78
2023-01-30T18:24:13.195Z,102507.00
2023-01-30T18:26:40.329Z,102504.75
2023-01-30T18:29:07.524Z,102502.28
2023-01-30T18:31:33.911Z,102514.03
2023-01-30T18:34:00.277Z,102526.81
2023-01-30T18:36:26.714Z,102523.28
2023-01-30T18:38:54.048Z,102536.38
2023-01-30T18:41:23.128Z,102530.00
2023-01-30T18:43:57.371Z,102532.84
2023-01-30T18:46:25.013Z,102526.94
2023-01-30T18:48:51.797Z,102532.91
2023-01-30T18:51:23.474Z,102534.91
2023-01-30T18:53:52.124Z,102539.03
2023-01-30T18:56:22.052Z,102539.63
2023-01-30T18:58:49.678Z,102549.34
2023-01-30T19:01:18.925Z,102546.16
2023-01-30T19:03:45.385Z,102547.19
2023-01-30T19:06:14.032Z,102549.03
2023-01-30T19:08:41.163Z,102540.78
2023-01-30T19:11:28.827Z,102547.78
2023-01-30T19:13:55.968Z,102554.81
2023-01-30T19:16:24.013Z,102552.31
2023-01-30T19:18:50.407Z,102550.38
2023-01-30T19:21:17.136Z,102553.25
2023-01-30T19:23:44.041Z,102558.41
2023-01-30T19:26:10.586Z,102557.28
2023-01-30T19:28:37.961Z,102559.34
2023-01-30T19:31:09.374Z,102571.13
2023-01-30T19:33:36.325Z,102560.28
2023-01-30T19:36:16.797Z,102552.63
2023-01-30T19:38:44.513Z,102551.00
2023-01-30T19:41:15.429Z,102555.94
2023-01-30T19:43:42.206Z,102554.69
2023-01-30T19:46:11.024Z,102565.91
2023-01-30T19:48:39.497Z,102561.91
2023-01-30T19:51:20.938Z,102567.31
2023-01-30T19:53:55.944Z,102567.41
2023-01-30T19:56:25.215Z,102569.13
2023-01-30T19:58:55.369Z,102572.00
2023-01-30T20:01:23.755Z,102570.41
2023-01-30T20:03:50.506Z,102572.78
2023-01-30T20:06:18.056Z,102574.38
2023-01-30T20:08:46.328Z,102575.22
2023-01-30T20:11:15.272Z,102567.31
2023-01-30T20:13:43.047Z,102577.25
2023-01-30T20:16:19.407Z,102586.19
2023-01-30T20:18:48.129Z,102590.09
2023-01-30T20:21:17.116Z,102589.25
2023-01-30T20:23:45.476Z,102586.84
2023-01-30T20:26:18.027Z,102589.16
2023-01-30T20:28:44.539Z,102592.22
2023-01-30T20:31:19.175Z,102597.72
2023-01-30T20:33:46.217Z,102599.19
2023-01-30T20:36:15.523Z,102594.97
2023-01-30T20:38:43.502Z,102593.38
2023-01-30T20:41:15.979Z,102590.50
2023-01-30T20:43:46.760Z,102582.50
2023-01-30T20:46:21.454Z,102592.66
2023-01-30T20:48:54.554Z,102599.19
2023-01-30T20:51:27.646Z,102601.25
2023-01-30T20:53:56.534Z,102595.41
2023-01-30T20:56:24.832Z,102598.28
2023-01-30T20:58:51.706Z,102598.84
2023-01-30T21:01:23.713Z,102599.50
2023-01-30T21:03:52.164Z,102605.22
2023-01-30T21:06:41.418Z,102613.56
2023-01-30T21:09:11.196Z,102612.44
2023-01-30T21:11:38.189Z,102613.44
2023-01-30T21:14:04.619Z,102612.06
2023-01-30T21:16:32.792Z,102608.06
2023-01-30T21:19:01.459Z,102606.91
2023-01-30T21:21:33.428Z,102611.00
2023-01-30T21:24:03.397Z,102619.34
2023-01-30T21:26:31.593Z,102628.56
2023-01-30T21:29:00.297Z,102630.69
2023-01-30T21:31:29.355Z,102620.28
2023-01-30T21:33:56.940Z,102613.41
2023-01-30T21:36:23.966Z,102603.72
2023-01-30T21:39:08.899Z,102613.84
2023-01-30T21:41:59.346Z,102610.88
2023-01-30T21:44:28.338Z,102612.06
2023-01-30T21:46:55.068Z,102610.47
2023-01-30T21:49:27.103Z,102617.75
2023-01-30T21:51:56.029Z,102626.28
2023-01-30T21:54:22.938Z,102632.19
2023-01-30T21:56:50.474Z,102640.94
2023-01-30T21:59:17.288Z,102632.50
2023-01-30T22:01:46.075Z,102631.81
2023-01-30T22:04:17.735Z,102635.78
2023-01-30T22:06:45.436Z,102645.16
2023-01-30T22:09:16.784Z,102637.00
2023-01-30T22:11:43.785Z,102644.56
2023-01-30T22:14:15.516Z,102642.69
2023-01-30T22:16:42.286Z,102642.81
2023-01-30T22:19:08.798Z,102633.81
2023-01-30T22:21:38.672Z,102636.81
2023-01-30T22:24:11.001Z,102636.81
2023-01-30T22:26:37.806Z,102635.41
2023-01-30T22:29:06.301Z,102644.41
2023-01-30T22:31:36.231Z,102635.00
2023-01-30T22:34:04.368Z,102633.41
2023-01-30T22:36:35.993Z,102630.22
2023-01-30T22:39:04.218Z,102621.94
2023-01-30T22:41:34.789Z,102619.00
2023-01-30T22:44:03.177Z,102621.25
2023-01-30T22:46:33.140Z,102627.81
2023-01-30T22:49:04.376Z,102627.66
2023-01-30T22:51:33.785Z,102621.94
2023-01-30T22:54:06.224Z,102614.03
2023-01-30T22:56:41.370Z,102607.63
2023-01-30T22:59:10.938Z,102619.16
2023-01-30T23:01:42.607Z,102616.38
2023-01-30T23:04:17.362Z,102605.50
2023-01-30T23:06:47.965Z,102604.78
2023-01-30T23:09:17.662Z,102602.66
2023-01-30T23:12:11.626Z,102602.22
2023-01-30T23:14:39.241Z,102594.41
2023-01-30T23:17:26.788Z,102593.75
2023-01-30T23:19:55.186Z,102584.88
2023-01-30T23:22:21.967Z,102586.69
2023-01-30T23:24:48.677Z,102580.06
2023-01-30T23:27:15.297Z,102582.59
2023-01-30T23:29:41.641Z,102583.09
2023-01-30T23:32:08.043Z,102576.25
2023-01-30T23:34:34.404Z,102577.84
2023-01-30T23:37:00.752Z,102579.44
2023-01-30T23:39:27.135Z,102586.75
2023-01-30T23:41:56.723Z,102584.53
2023-01-30T23:44:23.423Z,102577.28
2023-01-30T23:46:49.805Z,102579.28
2023-01-30T23:49:16.133Z,102583.16
2023-01-30T23:51:44.316Z,102574.75
2023-01-30T23:54:12.242Z,102576.69
2023-01-30T23:56:41.788Z,102589.41
2023-01-30T23:59:08.188Z,102596.25
